Oriental Freesia — ZGCD7 — position and weather

sailwx.info

Track history (hours):
 
Tides and Currents Weather Stations Pressure Air Temp Water Temp Dewpoint Dewpoint Depression Visibility Wind Speed Wind Dir Waves Ship Positions

Oriental Freesia

Last reported at 2017-Mar-11 07:33 UTC. Time now 2017-Apr-28 06:31 UTC.
Position N 36°28' E 014°33'.
Warning: this ship's position is 47 days out of date.

Length 134 m; draft 8.7 m.

Type: Ship (hazmat cat A). MMSI: 319349000.

Date/timePositionNaut miles runAvg speedWind from/ knotsBaromVisibWave heightAir tempDewpointWater temp
2017-Mar-11 07:33N 36°28' E 014°33'1212.3
2017-Mar-11 06:33N 36°31' E 014°18'1212.1
2017-Mar-11 05:33N 36°34' E 014°03'1211.8
2017-Mar-11 04:33N 36°37' E 013°49'  
2017-Mar-08 03:06N 36°03' W 004°31'813.4
2017-Mar-08 02:32N 36°03' W 004°40'1313.5
2017-Mar-08 01:33N 36°01' W 004°56'1413.9
2017-Mar-08 00:34N 35°60' W 005°13'1515.4
2017-Mar-07 23:34N 35°56' W 005°32'1514.5
2017-Mar-07 22:33N 35°54' W 005°50'22910.3
2017-Mar-07 00:16N 37°50' W 009°56'912.1
2017-Mar-06 23:33N 37°59' W 009°59'3612.0
2017-Mar-06 20:33N 38°34' W 010°09'1211.7
2017-Mar-06 19:33N 38°45' W 010°11'1111.5
2017-Mar-06 18:33N 38°57' W 010°11'1111.3
2017-Mar-06 17:33N 39°08' W 010°11'  
2017-Mar-03 10:12N 49°48' W 003°25'5 8.1
2017-Mar-03 09:33N 49°50' W 003°18'8 8.2
2017-Mar-03 08:33N 49°54' W 003°07'9 9.0
2017-Mar-03 07:33N 49°59' W 002°55'3912.9
2017-Mar-03 04:34N 50°10' W 001°57'1514.7
2017-Mar-03 03:33N 50°14' W 001°35'3610.8
2017-Mar-03 00:11N 50°24' W 000°40'8 7.8
2017-Mar-02 23:10N 50°26' W 000°28'5 8.4
2017-Mar-02 22:34N 50°27' W 000°21'9 9.5
2017-Mar-02 21:34N 50°30' W 000°06'1110.8
2017-Mar-02 20:34N 50°33' E 000°10'1212.0
2017-Mar-02 19:33N 50°36' E 000°28'1211.8
2017-Mar-02 18:33N 50°42' E 000°45'1111.1
2017-Mar-02 17:33N 50°49' E 000°58'20 8.2
2017-Mar-02 15:09N 51°01' E 001°22'3 5.6
2017-Mar-02 14:34N 51°03' E 001°26'6 5.7
2017-Mar-02 13:34N 51°07' E 001°33'7 6.8
2017-Mar-02 12:34N 51°12' E 001°42'10 9.6
2017-Mar-02 11:34N 51°19' E 001°51'1110.6
2017-Mar-02 10:33N 51°28' E 002°00'1010.0
2017-Mar-02 09:33N 51°35' E 002°11'66 6.6
2017-Mar-01 23:33N 52°03' E 003°49'9 8.7
2017-Mar-01 22:33N 51°60' E 004°02'1010.5
2017-Mar-01 21:34N 51°54' E 004°16'3 2.5
2017-Mar-01 20:19N 51°53' E 004°21'0 0.0
2017-Mar-01 19:19N 51°53' E 004°21'0 0.0
2017-Mar-01 18:25N 51°53' E 004°21'0 0.0
2017-Mar-01 17:31N 51°53' E 004°21'0 0.0
2017-Mar-01 16:31N 51°53' E 004°21'0 0.0
2017-Mar-01 15:31N 51°53' E 004°21'0 0.0
2017-Mar-01 14:18N 51°53' E 004°21'0 0.0
2017-Mar-01 13:30N 51°53' E 004°21'0 0.0
2017-Mar-01 12:19N 51°53' E 004°21'0 0.0
2017-Mar-01 11:24N 51°53' E 004°21'0 0.0
2017-Mar-01 10:30N 51°53' E 004°21'0 0.0
2017-Mar-01 09:25N 51°53' E 004°21'0 0.0
2017-Mar-01 08:30N 51°53' E 004°21'  
Track history (hours):
 
Tides and Currents Weather Stations Pressure Air Temp Water Temp Dewpoint Dewpoint Depression Visibility Wind Speed Wind Dir Waves Ship Positions

Oriental Freesia

Last reported at 2017-Mar-11 07:33 UTC. Time now 2017-Apr-28 06:31 UTC.
Position N 36°28' E 014°33'.
Warning: this ship's position is 47 days out of date.

Length 134 m; draft 8.7 m.

Type: Ship (hazmat cat A). MMSI: 319349000.

Date/timePositionNaut miles runAvg speedWind from/ knotsBaromVisibWave heightAir tempDewpointWater temp
2017-Mar-11 07:33N 36°28' E 014°33'1212.3
2017-Mar-11 06:33N 36°31' E 014°18'1212.1
2017-Mar-11 05:33N 36°34' E 014°03'1211.8
2017-Mar-11 04:33N 36°37' E 013°49'  
2017-Mar-08 03:06N 36°03' W 004°31'813.4
2017-Mar-08 02:32N 36°03' W 004°40'1313.5
2017-Mar-08 01:33N 36°01' W 004°56'1413.9
2017-Mar-08 00:34N 35°60' W 005°13'1515.4
2017-Mar-07 23:34N 35°56' W 005°32'1514.5
2017-Mar-07 22:33N 35°54' W 005°50'22910.3
2017-Mar-07 00:16N 37°50' W 009°56'912.1
2017-Mar-06 23:33N 37°59' W 009°59'3612.0
2017-Mar-06 20:33N 38°34' W 010°09'1211.7
2017-Mar-06 19:33N 38°45' W 010°11'1111.5
2017-Mar-06 18:33N 38°57' W 010°11'1111.3
2017-Mar-06 17:33N 39°08' W 010°11'  
2017-Mar-03 10:12N 49°48' W 003°25'5 8.1
2017-Mar-03 09:33N 49°50' W 003°18'8 8.2
2017-Mar-03 08:33N 49°54' W 003°07'9 9.0
2017-Mar-03 07:33N 49°59' W 002°55'3912.9
2017-Mar-03 04:34N 50°10' W 001°57'1514.7
2017-Mar-03 03:33N 50°14' W 001°35'3610.8
2017-Mar-03 00:11N 50°24' W 000°40'8 7.8
2017-Mar-02 23:10N 50°26' W 000°28'5 8.4
2017-Mar-02 22:34N 50°27' W 000°21'9 9.5
2017-Mar-02 21:34N 50°30' W 000°06'1110.8
2017-Mar-02 20:34N 50°33' E 000°10'1212.0
2017-Mar-02 19:33N 50°36' E 000°28'1211.8
2017-Mar-02 18:33N 50°42' E 000°45'1111.1
2017-Mar-02 17:33N 50°49' E 000°58'20 8.2
2017-Mar-02 15:09N 51°01' E 001°22'3 5.6
2017-Mar-02 14:34N 51°03' E 001°26'6 5.7
2017-Mar-02 13:34N 51°07' E 001°33'7 6.8
2017-Mar-02 12:34N 51°12' E 001°42'10 9.6
2017-Mar-02 11:34N 51°19' E 001°51'1110.6
2017-Mar-02 10:33N 51°28' E 002°00'1010.0
2017-Mar-02 09:33N 51°35' E 002°11'66 6.6
2017-Mar-01 23:33N 52°03' E 003°49'9 8.7
2017-Mar-01 22:33N 51°60' E 004°02'1010.5
2017-Mar-01 21:34N 51°54' E 004°16'3 2.5
2017-Mar-01 20:19N 51°53' E 004°21'0 0.0
2017-Mar-01 19:19N 51°53' E 004°21'0 0.0
2017-Mar-01 18:25N 51°53' E 004°21'0 0.0
2017-Mar-01 17:31N 51°53' E 004°21'0 0.0
2017-Mar-01 16:31N 51°53' E 004°21'0 0.0
2017-Mar-01 15:31N 51°53' E 004°21'0 0.0
2017-Mar-01 14:18N 51°53' E 004°21'0 0.0
2017-Mar-01 13:30N 51°53' E 004°21'0 0.0
2017-Mar-01 12:19N 51°53' E 004°21'0 0.0
2017-Mar-01 11:24N 51°53' E 004°21'0 0.0
2017-Mar-01 10:30N 51°53' E 004°21'0 0.0
2017-Mar-01 09:25N 51°53' E 004°21'0 0.0
2017-Mar-01 08:30N 51°53' E 004°21'  

Dump ship's entire track history